createdAt,value
2022-11-23T00:00:32.622Z,7.35
2022-11-23T00:03:00.911Z,7.40
2022-11-23T00:05:29.375Z,7.36
2022-11-23T00:07:57.079Z,7.37
2022-11-23T00:10:27.504Z,7.38
2022-11-23T00:12:54.895Z,7.45
2022-11-23T00:15:22.509Z,7.40
2022-11-23T00:17:49.932Z,7.38
2022-11-23T00:20:17.346Z,7.35
2022-11-23T00:22:45.371Z,7.32
2022-11-23T00:25:13.395Z,7.32
2022-11-23T00:27:40.748Z,7.36
2022-11-23T00:30:10.711Z,7.32
2022-11-23T00:32:38.241Z,7.35
2022-11-23T00:35:07.948Z,7.31
2022-11-23T00:37:35.363Z,7.30
2022-11-23T00:40:08.861Z,7.31
2022-11-23T00:42:38.183Z,7.34
2022-11-23T00:45:06.265Z,7.35
2022-11-23T00:47:36.756Z,7.34
2022-11-23T00:50:06.784Z,7.31
2022-11-23T00:52:34.285Z,7.37
2022-11-23T00:55:04.337Z,7.48
2022-11-23T00:57:33.931Z,7.56
2022-11-23T01:00:01.463Z,7.49
2022-11-23T01:02:30.364Z,7.47
2022-11-23T01:04:57.758Z,7.51
2022-11-23T01:07:25.179Z,7.59
2022-11-23T01:09:52.571Z,7.63
2022-11-23T01:12:19.859Z,7.50
2022-11-23T01:14:48.163Z,7.47
2022-11-23T01:17:15.552Z,7.45
2022-11-23T01:19:42.954Z,7.50
2022-11-23T01:22:11.294Z,7.29
2022-11-23T01:24:38.669Z,7.10
2022-11-23T01:27:09.536Z,6.92
2022-11-23T01:29:36.898Z,6.88
2022-11-23T01:32:04.445Z,6.84
2022-11-23T01:34:31.824Z,6.77
2022-11-23T01:36:59.842Z,6.83
2022-11-23T01:39:28.797Z,6.95
2022-11-23T01:41:56.282Z,6.89
2022-11-23T01:44:32.281Z,6.93
2022-11-23T01:47:02.190Z,6.88
2022-11-23T01:49:49.576Z,6.79
2022-11-23T01:52:24.586Z,6.77
2022-11-23T01:54:55.670Z,6.67
2022-11-23T01:57:29.866Z,6.54
2022-11-23T01:59:58.097Z,6.56
2022-11-23T02:02:28.208Z,6.52
2022-11-23T02:04:59.080Z,6.48
2022-11-23T02:07:26.616Z,6.51
2022-11-23T02:09:54.322Z,6.42
2022-11-23T02:12:21.619Z,6.43
2022-11-23T02:14:49.258Z,6.39
2022-11-23T02:17:19.487Z,6.46
2022-11-23T02:20:15.967Z,6.45
2022-11-23T02:23:04.633Z,6.40
2022-11-23T02:25:38.500Z,6.39
2022-11-23T02:28:06.979Z,6.36
2022-11-23T02:33:25.268Z,6.35
2022-11-23T02:35:55.198Z,6.28
2022-11-23T02:38:26.908Z,6.32
2022-11-23T02:40:56.617Z,6.32
2022-11-23T02:43:24.705Z,6.31
2022-11-23T02:46:01.908Z,6.27
2022-11-23T02:48:29.205Z,6.30
2022-11-23T02:50:56.513Z,6.28
2022-11-23T02:53:24.800Z,6.27
2022-11-23T02:55:54.462Z,6.24
2022-11-23T02:58:21.805Z,6.25
2022-11-23T03:00:50.567Z,6.27
2022-11-23T03:03:20.350Z,6.22
2022-11-23T03:05:47.701Z,6.10
2022-11-23T03:08:15.104Z,6.09
2022-11-23T03:10:43.129Z,5.98
2022-11-23T03:13:11.456Z,6.02
2022-11-23T03:15:40.591Z,6.08
2022-11-23T03:18:09.973Z,6.04
2022-11-23T03:20:37.325Z,5.91
2022-11-23T03:23:05.585Z,5.98
2022-11-23T03:25:33.408Z,5.93
2022-11-23T03:28:00.829Z,5.81
2022-11-23T03:30:28.430Z,5.81
2022-11-23T03:32:55.792Z,5.72
2022-11-23T03:35:23.947Z,5.69
2022-11-23T03:38:10.507Z,5.63
2022-11-23T03:40:38.288Z,5.58
2022-11-23T03:43:26.094Z,5.56
2022-11-23T03:45:53.614Z,5.56
2022-11-23T03:48:21.278Z,5.50
2022-11-23T03:50:49.638Z,5.51
2022-11-23T03:53:17.042Z,5.53
2022-11-23T03:55:46.833Z,5.52
2022-11-23T03:58:15.313Z,5.46
2022-11-23T04:00:43.250Z,5.45
2022-11-23T04:03:13.054Z,5.43
2022-11-23T04:06:12.786Z,5.40
2022-11-23T04:09:06.197Z,5.38
2022-11-23T04:11:51.989Z,5.32
2022-11-23T04:14:20.232Z,5.37
2022-11-23T04:16:48.528Z,5.31
2022-11-23T04:19:16.565Z,5.31
2022-11-23T04:21:43.983Z,5.34
2022-11-23T04:24:11.428Z,5.34
2022-11-23T04:26:40.776Z,5.38
2022-11-23T04:29:10.012Z,5.45
2022-11-23T04:31:41.144Z,5.42
2022-11-23T04:34:13.412Z,5.42
2022-11-23T04:36:40.769Z,5.45
2022-11-23T04:39:12.541Z,5.48
2022-11-23T04:42:06.398Z,5.47
2022-11-23T04:44:34.696Z,5.44
2022-11-23T04:47:05.281Z,5.41
2022-11-23T04:49:36.399Z,5.44
2022-11-23T04:52:05.644Z,5.41
2022-11-23T04:54:38.171Z,5.39
2022-11-23T04:57:09.478Z,5.38
2022-11-23T04:59:38.438Z,5.41
2022-11-23T05:02:06.177Z,5.38
2022-11-23T05:04:56.740Z,5.32
2022-11-23T05:07:29.133Z,5.25
2022-11-23T05:10:00.447Z,5.22
2022-11-23T05:12:27.898Z,5.18
2022-11-23T05:14:55.341Z,5.23
2022-11-23T05:17:29.469Z,5.20
2022-11-23T05:19:56.852Z,5.23
2022-11-23T05:22:25.248Z,5.23
2022-11-23T05:24:53.492Z,5.23
2022-11-23T05:27:24.124Z,5.25
2022-11-23T05:29:51.885Z,5.23
2022-11-23T05:32:19.468Z,5.23
2022-11-23T05:34:46.853Z,5.17
2022-11-23T05:37:16.248Z,5.19
2022-11-23T05:39:52.252Z,5.17
2022-11-23T05:42:20.560Z,5.20
2022-11-23T05:44:48.733Z,5.22
2022-11-23T05:47:23.370Z,5.14
2022-11-23T05:49:51.071Z,5.06
2022-11-23T05:52:24.499Z,5.06
2022-11-23T05:54:52.070Z,5.11
2022-11-23T05:57:22.492Z,5.07
2022-11-23T05:59:51.056Z,5.00
2022-11-23T06:02:22.684Z,5.02
2022-11-23T06:04:56.186Z,4.96
2022-11-23T06:07:35.491Z,4.96
2022-11-23T06:10:10.328Z,4.98
2022-11-23T06:12:40.823Z,4.97
2022-11-23T06:15:13.107Z,4.97
2022-11-23T06:17:40.804Z,4.93
2022-11-23T06:20:12.799Z,4.83
2022-11-23T06:22:44.318Z,4.82
2022-11-23T06:25:11.796Z,4.87
2022-11-23T06:27:41.456Z,4.90
2022-11-23T06:30:20.341Z,4.97
2022-11-23T06:32:48.595Z,4.96
2022-11-23T06:35:16.981Z,4.95
2022-11-23T06:37:45.188Z,5.03
2022-11-23T06:40:13.249Z,5.01
2022-11-23T06:42:42.948Z,5.10
2022-11-23T06:45:21.296Z,5.08
2022-11-23T06:47:54.887Z,5.13
2022-11-23T06:50:23.068Z,5.11
2022-11-23T06:52:55.362Z,5.10
2022-11-23T06:55:29.081Z,5.19
2022-11-23T06:57:57.421Z,5.36
2022-11-23T07:00:25.028Z,5.77
2022-11-23T07:02:54.516Z,6.52
2022-11-23T07:05:27.452Z,7.00
2022-11-23T07:07:55.032Z,7.08
2022-11-23T07:10:26.877Z,6.75
2022-11-23T07:13:06.406Z,6.59
2022-11-23T07:15:34.994Z,6.52
2022-11-23T07:18:02.609Z,6.61
2022-11-23T07:20:30.005Z,6.50
2022-11-23T07:23:08.442Z,6.43
2022-11-23T07:25:37.649Z,6.45
2022-11-23T07:28:06.641Z,6.42
2022-11-23T07:30:35.000Z,6.44
2022-11-23T07:33:05.019Z,6.35
2022-11-23T07:35:36.007Z,6.31
2022-11-23T07:38:04.163Z,6.23
2022-11-23T07:40:31.868Z,6.28
2022-11-23T07:43:01.072Z,6.32
2022-11-23T07:45:29.184Z,6.33
2022-11-23T07:48:02.092Z,6.40
2022-11-23T07:50:32.277Z,6.42
2022-11-23T07:53:02.093Z,6.46
2022-11-23T07:55:30.765Z,6.46
2022-11-23T07:57:58.496Z,6.52
2022-11-23T08:00:27.627Z,6.57
2022-11-23T08:03:25.692Z,6.68
2022-11-23T08:05:43.237Z,6.67
2022-11-23T08:08:10.628Z,6.72
2022-11-23T08:10:43.615Z,6.83
2022-11-23T08:13:13.040Z,6.89
2022-11-23T08:15:50.342Z,6.87
2022-11-23T08:18:20.986Z,6.94
2022-11-23T08:20:48.400Z,6.99
2022-11-23T08:23:15.836Z,7.07
2022-11-23T08:25:43.272Z,7.17
2022-11-23T08:28:11.126Z,7.22
2022-11-23T08:30:39.120Z,7.25
2022-11-23T08:33:07.931Z,7.32
2022-11-23T08:35:36.924Z,7.46
2022-11-23T08:38:05.199Z,7.51
2022-11-23T08:40:33.645Z,7.56
2022-11-23T08:43:01.210Z,7.68
2022-11-23T08:45:28.950Z,7.69
2022-11-23T08:48:03.988Z,7.83
2022-11-23T08:50:32.204Z,7.92
2022-11-23T08:53:00.232Z,8.05
2022-11-23T08:55:28.389Z,8.09
2022-11-23T08:57:59.769Z,8.27
2022-11-23T09:00:28.076Z,8.35
2022-11-23T09:02:59.039Z,8.43
2022-11-23T09:05:27.325Z,8.58
2022-11-23T09:07:55.535Z,8.82
2022-11-23T09:10:23.162Z,8.89
2022-11-23T09:12:50.589Z,9.00
2022-11-23T09:15:18.552Z,9.11
2022-11-23T09:17:46.123Z,9.09
2022-11-23T09:20:13.543Z,9.22
2022-11-23T09:22:53.613Z,9.32
2022-11-23T09:25:22.456Z,9.50
2022-11-23T09:27:50.580Z,9.53
2022-11-23T09:30:20.874Z,9.55
2022-11-23T09:32:48.285Z,9.67
2022-11-23T09:35:16.493Z,9.60
2022-11-23T09:37:43.847Z,9.66
2022-11-23T09:40:16.563Z,9.71
2022-11-23T09:43:17.341Z,9.68
2022-11-23T09:45:51.607Z,9.72
2022-11-23T09:48:55.604Z,9.67
2022-11-23T09:51:23.502Z,9.67
2022-11-23T09:53:59.100Z,9.72
2022-11-23T09:56:37.468Z,9.71
2022-11-23T09:59:31.306Z,9.80
2022-11-23T10:02:00.574Z,9.80
2022-11-23T10:04:35.581Z,9.86
2022-11-23T10:07:25.713Z,10.00
2022-11-23T10:10:32.866Z,10.18
2022-11-23T10:13:12.240Z,10.30
2022-11-23T10:15:53.264Z,10.34
2022-11-23T10:18:31.730Z,10.36
2022-11-23T10:21:12.825Z,10.47
2022-11-23T10:23:59.251Z,10.54
2022-11-23T10:26:37.415Z,10.57
2022-11-23T10:29:14.536Z,10.62
2022-11-23T10:31:47.392Z,10.76
2022-11-23T10:34:19.805Z,10.67
2022-11-23T10:36:47.172Z,10.67
2022-11-23T10:39:17.650Z,10.74
2022-11-23T10:41:46.296Z,10.85
2022-11-23T10:44:33.711Z,10.87
2022-11-23T10:47:01.350Z,10.89
2022-11-23T10:49:37.798Z,10.96
2022-11-23T10:52:31.638Z,11.05
2022-11-23T10:55:01.814Z,11.10
2022-11-23T10:57:43.279Z,11.11
2022-11-23T11:00:11.553Z,11.07
2022-11-23T11:02:45.207Z,11.16
2022-11-23T11:05:15.790Z,11.16
2022-11-23T11:07:43.426Z,11.24
2022-11-23T11:10:34.255Z,11.23
2022-11-23T11:13:01.716Z,11.20
2022-11-23T11:15:29.109Z,11.30
2022-11-23T11:17:59.146Z,11.36
2022-11-23T11:20:35.050Z,11.35
2022-11-23T11:23:18.312Z,11.37
2022-11-23T11:25:47.826Z,11.36
2022-11-23T11:28:20.958Z,11.43
2022-11-23T11:30:56.124Z,11.45
2022-11-23T11:33:36.299Z,11.59
2022-11-23T11:36:06.761Z,11.63
2022-11-23T11:38:37.466Z,11.67
2022-11-23T11:41:12.018Z,11.63
2022-11-23T11:43:48.304Z,11.68
2022-11-23T11:46:30.151Z,11.67
2022-11-23T11:49:02.853Z,11.79
2022-11-23T11:51:49.952Z,11.78
2022-11-23T11:54:36.047Z,11.83
2022-11-23T11:57:25.491Z,11.94
2022-11-23T12:00:01.654Z,12.03
2022-11-23T12:03:04.159Z,12.24
2022-11-23T12:05:51.743Z,12.23
2022-11-23T12:08:44.527Z,12.17
2022-11-23T12:11:13.160Z,12.18
2022-11-23T12:13:45.675Z,12.08
2022-11-23T12:16:31.557Z,12.04
2022-11-23T12:19:17.726Z,12.04
2022-11-23T12:21:57.159Z,12.05
2022-11-23T12:24:41.466Z,11.99
2022-11-23T12:27:18.000Z,12.48
2022-11-23T12:30:16.308Z,12.17
2022-11-23T12:33:21.031Z,12.11
2022-11-23T12:36:09.777Z,12.05
2022-11-23T12:39:00.328Z,12.01
2022-11-23T12:41:47.317Z,11.92
2022-11-23T12:44:51.852Z,11.87
2022-11-23T12:47:37.676Z,11.88
2022-11-23T12:50:25.469Z,11.95
2022-11-23T12:53:12.238Z,11.97
2022-11-23T12:56:15.864Z,11.84
2022-11-23T12:58:46.816Z,11.78
2022-11-23T13:01:30.798Z,11.95
2022-11-23T13:04:22.430Z,11.89
2022-11-23T13:07:27.704Z,11.82
2022-11-23T13:10:07.558Z,11.77
2022-11-23T13:13:14.074Z,11.75
2022-11-23T13:16:04.654Z,11.76
2022-11-23T13:18:47.278Z,11.84
2022-11-23T13:21:32.928Z,11.68
2022-11-23T13:24:00.504Z,11.65
2022-11-23T13:26:29.543Z,11.64
2022-11-23T13:28:59.117Z,11.65
2022-11-23T13:31:30.954Z,11.47
2022-11-23T13:34:00.876Z,11.44
2022-11-23T13:37:10.427Z,11.44
2022-11-23T13:39:58.847Z,11.43
2022-11-23T13:42:27.714Z,11.37
2022-11-23T13:45:22.028Z,11.27
2022-11-23T13:48:41.197Z,11.20
2022-11-23T13:51:04.615Z,11.20
2022-11-23T13:53:35.142Z,11.08
2022-11-23T13:56:35.952Z,11.08
2022-11-23T13:59:24.645Z,11.04
2022-11-23T14:02:03.109Z,11.01
2022-11-23T14:04:51.828Z,10.96
2022-11-23T14:07:47.048Z,10.84
2022-11-23T14:10:21.251Z,10.82
2022-11-23T14:13:05.693Z,10.69
2022-11-23T14:15:35.867Z,10.50
2022-11-23T14:18:09.027Z,10.49
2022-11-23T14:20:54.852Z,10.40
2022-11-23T14:23:40.546Z,10.32
2022-11-23T14:26:26.945Z,10.27
2022-11-23T14:29:19.232Z,10.21
2022-11-23T14:32:03.814Z,10.20
2022-11-23T14:34:52.618Z,10.20
2022-11-23T14:37:41.276Z,10.16
2022-11-23T14:40:27.543Z,10.21
2022-11-23T14:42:57.257Z,10.16
2022-11-23T14:45:29.758Z,10.08
2022-11-23T14:47:57.281Z,10.03
2022-11-23T14:50:27.683Z,9.92
2022-11-23T14:52:58.595Z,9.89
2022-11-23T14:55:28.716Z,9.91
2022-11-23T14:58:01.746Z,9.87
2022-11-23T15:00:29.041Z,9.88
2022-11-23T15:03:04.556Z,9.86
2022-11-23T15:05:46.393Z,9.84
2022-11-23T15:08:36.248Z,9.80
2022-11-23T15:11:12.486Z,9.70
2022-11-23T15:13:46.304Z,9.71
2022-11-23T15:16:15.949Z,9.71
2022-11-23T15:18:43.785Z,9.65
2022-11-23T15:21:11.136Z,9.55
2022-11-23T15:23:50.678Z,9.45
2022-11-23T15:26:46.625Z,9.38
2022-11-23T15:29:28.838Z,9.38
2022-11-23T15:32:22.308Z,9.34
2022-11-23T15:34:43.821Z,9.23
2022-11-23T15:37:11.247Z,9.16
2022-11-23T15:39:39.285Z,9.08
2022-11-23T15:42:07.173Z,9.07
2022-11-23T15:44:38.506Z,9.00
2022-11-23T15:47:07.268Z,8.97
2022-11-23T15:49:39.528Z,8.95
2022-11-23T15:52:11.561Z,8.96
2022-11-23T15:54:39.141Z,8.95
2022-11-23T15:57:09.667Z,8.89
2022-11-23T15:59:47.055Z,8.87
2022-11-23T16:02:18.031Z,8.88
2022-11-23T16:04:45.839Z,8.85
2022-11-23T16:07:26.224Z,8.83
2022-11-23T16:10:25.149Z,8.84
2022-11-23T16:12:55.223Z,8.81
2022-11-23T16:15:37.810Z,8.77
2022-11-23T16:18:28.016Z,8.72
2022-11-23T16:20:59.145Z,8.67
2022-11-23T16:23:43.276Z,8.64
2022-11-23T16:26:12.060Z,8.62
2022-11-23T16:28:48.955Z,8.64
2022-11-23T16:31:43.182Z,8.63
2022-11-23T16:34:15.731Z,8.50
2022-11-23T16:36:46.306Z,8.37
2022-11-23T16:39:13.984Z,8.27
2022-11-23T16:41:43.568Z,8.15
2022-11-23T16:44:10.937Z,8.09
2022-11-23T16:46:43.246Z,8.13
2022-11-23T16:49:22.327Z,8.09
2022-11-23T16:51:57.065Z,8.02
2022-11-23T16:54:25.589Z,8.04
2022-11-23T16:56:53.574Z,8.09
2022-11-23T16:59:22.842Z,8.05
2022-11-23T17:01:56.645Z,8.03
2022-11-23T17:04:25.363Z,7.98
2022-11-23T17:06:52.769Z,7.98
2022-11-23T17:09:20.117Z,7.96
2022-11-23T17:11:50.766Z,7.97
2022-11-23T17:14:19.795Z,7.99
2022-11-23T17:16:48.101Z,8.00
2022-11-23T17:19:16.922Z,8.00
2022-11-23T17:21:44.669Z,8.02
2022-11-23T17:24:13.751Z,7.89
2022-11-23T17:26:52.700Z,7.75
2022-11-23T17:29:21.058Z,7.71
2022-11-23T17:31:50.557Z,7.64
2022-11-23T17:34:18.215Z,7.52
2022-11-23T17:36:47.274Z,7.52
2022-11-23T17:39:19.947Z,7.53
2022-11-23T17:41:48.209Z,7.59
2022-11-23T17:44:16.574Z,7.66
2022-11-23T17:46:45.984Z,7.64
2022-11-23T17:49:17.986Z,7.41
2022-11-23T17:51:48.003Z,7.37
2022-11-23T17:54:15.387Z,7.37
2022-11-23T17:56:43.027Z,7.40
2022-11-23T17:59:10.464Z,7.37
2022-11-23T18:01:37.841Z,7.37
2022-11-23T18:04:05.369Z,7.40
2022-11-23T18:06:32.797Z,7.36
2022-11-23T18:09:00.229Z,7.38
2022-11-23T18:11:28.628Z,7.27
2022-11-23T18:13:56.152Z,7.21
2022-11-23T18:16:25.486Z,7.18
2022-11-23T18:18:53.344Z,7.16
2022-11-23T18:21:22.722Z,7.15
2022-11-23T18:23:50.034Z,7.14
2022-11-23T18:26:23.941Z,7.18
2022-11-23T18:28:51.632Z,7.21
2022-11-23T18:31:19.920Z,7.21
2022-11-23T18:33:47.459Z,7.18
2022-11-23T18:36:14.919Z,7.23
2022-11-23T18:38:44.953Z,7.15
2022-11-23T18:41:18.349Z,7.05
2022-11-23T18:43:46.177Z,6.81
2022-11-23T18:46:19.460Z,6.85
2022-11-23T18:48:48.836Z,6.73
2022-11-23T18:51:17.980Z,6.60
2022-11-23T18:53:47.882Z,6.58
2022-11-23T18:56:15.485Z,6.64
2022-11-23T18:58:44.408Z,6.57
2022-11-23T19:01:14.038Z,6.63
2022-11-23T19:03:42.435Z,6.64
2022-11-23T19:06:14.382Z,6.50
2022-11-23T19:08:44.048Z,6.38
2022-11-23T19:11:17.515Z,6.38
2022-11-23T19:13:47.330Z,6.33
2022-11-23T19:16:23.911Z,6.32
2022-11-23T19:19:00.462Z,6.44
2022-11-23T19:21:30.287Z,6.46
2022-11-23T19:23:59.051Z,6.38
2022-11-23T19:26:28.079Z,6.31
2022-11-23T19:28:56.234Z,6.31
2022-11-23T19:31:24.669Z,6.33
2022-11-23T19:33:52.667Z,6.25
2022-11-23T19:36:22.285Z,6.34
2022-11-23T19:38:51.653Z,6.40
2022-11-23T19:41:19.147Z,6.33
2022-11-23T19:43:46.578Z,6.31
2022-11-23T19:46:14.591Z,6.25
2022-11-23T19:48:42.257Z,6.34
2022-11-23T19:51:15.475Z,6.35
2022-11-23T19:53:44.242Z,6.36
2022-11-23T19:56:15.326Z,6.36
2022-11-23T19:58:43.262Z,6.32
2022-11-23T20:01:16.011Z,6.29
2022-11-23T20:03:48.861Z,6.27
2022-11-23T20:06:21.827Z,6.22
2022-11-23T20:08:56.646Z,6.18
2022-11-23T20:11:25.260Z,6.23
2022-11-23T20:13:54.160Z,6.37
2022-11-23T20:16:22.630Z,6.33
2022-11-23T20:18:57.015Z,6.33
2022-11-23T20:21:25.610Z,6.34
2022-11-23T20:24:05.171Z,6.39
2022-11-23T20:26:36.388Z,6.36
2022-11-23T20:29:06.033Z,6.40
2022-11-23T20:31:34.277Z,6.36
2022-11-23T20:34:03.307Z,6.38
2022-11-23T20:36:36.123Z,6.39
2022-11-23T20:39:06.285Z,6.34
2022-11-23T20:41:35.714Z,6.34
2022-11-23T20:44:11.999Z,6.38
2022-11-23T20:49:27.985Z,6.37
2022-11-23T20:51:55.447Z,6.41
2022-11-23T20:54:25.756Z,6.38
2022-11-23T20:56:53.186Z,6.33
2022-11-23T20:59:20.745Z,6.43
2022-11-23T21:01:48.324Z,6.31
2022-11-23T21:04:16.034Z,6.40
2022-11-23T21:06:43.961Z,6.28
2022-11-23T21:09:12.194Z,6.26
2022-11-23T21:11:57.738Z,6.43
2022-11-23T21:14:28.347Z,6.38
2022-11-23T21:16:59.001Z,6.34
2022-11-23T21:19:31.687Z,6.41
2022-11-23T21:22:02.486Z,6.47
2022-11-23T21:24:29.996Z,6.50
2022-11-23T21:26:57.460Z,6.54
2022-11-23T21:29:24.833Z,6.56
2022-11-23T21:31:52.312Z,6.70
2022-11-23T21:34:22.483Z,6.75
2022-11-23T21:36:50.915Z,6.58
2022-11-23T21:39:19.366Z,6.49
2022-11-23T21:41:48.990Z,6.48
2022-11-23T21:44:17.620Z,6.44
2022-11-23T21:46:45.331Z,6.38
2022-11-23T21:49:13.032Z,6.41
2022-11-23T21:51:42.619Z,6.39
2022-11-23T21:54:14.222Z,6.36
2022-11-23T21:56:43.630Z,6.39
2022-11-23T21:59:12.413Z,6.38
2022-11-23T22:01:40.563Z,6.45
2022-11-23T22:04:10.804Z,6.47
2022-11-23T22:06:39.249Z,6.52
2022-11-23T22:09:09.576Z,6.51
2022-11-23T22:11:41.104Z,6.37
2022-11-23T22:14:11.953Z,6.36
2022-11-23T22:16:40.941Z,6.28
2022-11-23T22:19:12.226Z,6.20
2022-11-23T22:21:41.924Z,6.13
2022-11-23T22:24:14.539Z,6.14
2022-11-23T22:26:42.692Z,6.14
2022-11-23T22:29:10.771Z,6.21
2022-11-23T22:31:38.272Z,6.26
2022-11-23T22:34:09.255Z,6.22
2022-11-23T22:36:36.741Z,6.12
2022-11-23T22:39:06.521Z,6.14
2022-11-23T22:41:37.255Z,6.12
2022-11-23T22:44:07.643Z,6.07
2022-11-23T22:46:37.233Z,6.02
2022-11-23T22:49:04.942Z,5.92
2022-11-23T22:51:33.860Z,5.84
2022-11-23T22:54:02.583Z,5.86
2022-11-23T22:56:30.788Z,5.58
2022-11-23T22:58:58.881Z,5.44
2022-11-23T23:01:30.156Z,5.45
2022-11-23T23:04:02.399Z,5.40
2022-11-23T23:06:34.666Z,5.43
2022-11-23T23:09:04.539Z,5.41
2022-11-23T23:11:33.307Z,5.36
2022-11-23T23:14:00.964Z,5.32
2022-11-23T23:16:29.097Z,5.41
2022-11-23T23:18:57.605Z,5.39
2022-11-23T23:21:26.469Z,5.52
2022-11-23T23:23:55.904Z,5.46
2022-11-23T23:26:27.333Z,5.40
2022-11-23T23:29:00.465Z,5.34
2022-11-23T23:31:29.917Z,5.36
2022-11-23T23:33:59.381Z,5.33
2022-11-23T23:36:26.779Z,5.18
2022-11-23T23:38:54.298Z,5.20
2022-11-23T23:41:22.489Z,5.16
2022-11-23T23:43:50.159Z,5.23
2022-11-23T23:46:17.910Z,5.14
2022-11-23T23:48:45.621Z,5.08
2022-11-23T23:51:20.909Z,5.14
2022-11-23T23:53:49.016Z,5.11
2022-11-23T23:56:22.912Z,5.24
2022-11-23T23:58:50.901Z,5.22
